Amunt
Inicio > meteoXarxa
Fes-te'n soci

METEOXARXA

Cinctorres
Ubicació
Comarca els Ports
Altitud (msnm) 907
Posició geogràfica 40° 34' 57.00" N, 00° 12' 58.00" W
Model Davis Vantage Pro2
Presa de dades
Font de les dades Llorens Boix Milián
Estadístiques. Resum
Data Temperatura (ºC) Humitat (%) Pressió (hPa) Vent (km/h) Precipit. (mm)
Mínima Mitjana Màxima Mínima Mitjana Màxima Mínima Mitjana Màxima Predom. Mitjana Ràfega màxima Total Dies de pluja
Mínima Mitjana Màxima Mínima Mitjana Màxima
Últimes dades diàries
25-03-2017 1,1     7,3     12,1 26,0 51,4 78,0 1.010,0 1.013,1 1.016,3 OSO 8,4 45,1 0,0  
24-03-2017 -0,1     3,2     5,7 74,0 82,0 90,0 1.011,8 1.013,2 1.015,3 SO 5,1 37,0 0,0  
23-03-2017 1,8     4,9     8,4 37,0 62,0 84,0 1.006,0 1.008,2 1.011,9 SSO 7,1 33,8 0,0  
22-03-2017 3,9     8,2     14,6 20,0 62,6 86,0 1.006,6 1.010,8 1.014,9 SO 5,8 41,8 0,0  
21-03-2017 6,2     10,2     14,4 51,0 68,6 83,0 1.011,4 1.012,5 1.014,9 SSO 4,9 27,4 0,0  
20-03-2017 5,3     12,3     19,6 35,0 59,3 81,0 1.011,3 1.012,8 1.014,4 SSE 2,8 20,9 0,0  
19-03-2017 4,8     11,9     19,0 32,0 46,0 71,0 1.013,5 1.016,4 1.019,8 SSE 2,5 20,9 0,0  
18-03-2017 2,2     10,9     19,6 16,0 45,9 70,0 1.018,9 1.020,6 1.022,6 SSE 3,2 19,3 0,0  
17-03-2017 2,7     9,6     17,6 20,0 47,8 69,0 1.020,3 1.021,6 1.022,8 SSE 4,0 24,1 0,0  
16-03-2017 3,0     9,8     16,1 26,0 53,0 83,0 1.021,0 1.022,8 1.025,1 SSE 5,4 27,4 0,0  
15-03-2017 3,1     8,7     14,6 40,0 70,9 93,0 1.024,3 1.026,4 1.028,9 SSE 4,0 25,7 0,0  
14-03-2017 4,9     8,5     14,7 57,0 81,9 94,0 1.026,8 1.028,6 1.031,2 S 3,1 17,7 0,3  
13-03-2017 4,1     6,1     6,9 88,0 92,4 94,0 1.021,6 1.024,3 1.028,3 SSO 4,5 32,2 32,8  
10-03-2017 12,3     17,7     24,8 16,0 30,7 43,0 1.016,3 1.019,0 1.022,3 O 7,3 35,4 0,0  
09-03-2017 8,9     16,3     23,9 19,0 40,5 58,0 1.021,9 1.024,1 1.026,4 S 3,5 33,8 0,0  
08-03-2017 7,9     12,8     18,5 31,0 55,8 77,0 1.022,6 1.025,1 1.026,6 O 12,0 56,3 0,0  
07-03-2017 5,9     10,9     15,6 39,0 55,5 74,0 1.020,3 1.021,4 1.023,1 OSO 16,1 69,2 0,0  
06-03-2017 8,4     11,8     15,7 50,0 63,4 81,0 1.016,5 1.018,7 1.021,6 ONO 20,0 64,4 0,3  
05-03-2017 1,8     8,4     13,8 54,0 67,4 81,0 1.012,3 1.016,0 1.019,6 O 8,3 48,3 1,3  
04-03-2017 2,6     4,8     8,8 41,0 58,4 87,0 995,3 1.004,0 1.012,1 ONO 20,4 77,2 0,3  
03-03-2017 2,7     8,0     12,3 54,0 76,0 94,0 995,9 1.005,1 1.015,1 S 14,3 56,3 12,4  
02-03-2017 5,8     10,0     16,2 48,0 69,2 84,0 1.015,2 1.017,4 1.019,6 SSE 5,6 30,6 0,0  
01-03-2017 1,8     7,7     14,8 46,0 72,1 91,0 1.016,5 1.017,9 1.019,5 SSO 4,4 29,0 0,0  
28-02-2017 3,9     8,4     12,9 48,0 64,2 87,0 1.008,4 1.010,5 1.016,2 O 13,3 51,5 0,0  
27-02-2017 3,2     9,2     17,3 28,0 64,4 90,0 1.010,3 1.013,2 1.016,9 SSO 4,6 29,0 0,0  
26-02-2017 1,2     7,8     16,1 31,0 67,9 91,0 1.017,0 1.019,3 1.021,4 SSE 1,9 20,9 0,0  
25-02-2017 -0,3     5,6     14,0 31,0 65,3 89,0 1.017,5 1.019,0 1.020,7 SSE 2,5 19,3 0,0  
24-02-2017 3,1     6,9     9,1 60,0 77,2 92,0 1.009,7 1.012,8 1.018,3 O 11,9 45,1 4,1  
23-02-2017 9,1     11,8     16,2 50,0 60,1 78,0 1.011,3 1.014,0 1.018,2 SSO 3,7 25,7 0,0  
21-02-2017 -0,3     6,1     14,7 38,0 74,3 95,0 1.022,3 1.024,6 1.026,5 SSE 2,3 19,3 0,0  
20-02-2017 1,2     5,7     12,6 43,0 77,0 92,0 1.024,0 1.026,0 1.027,9 SSO 2,2 17,7 0,0  
19-02-2017 2,2     5,5     10,1 63,0 81,6 93,0 1.020,8 1.024,4 1.026,6 SSE 3,0 22,5 0,0  
Dades del mes en curs (actualitzades fins l'últim dia disponible)
03/2017 -0,1 4,4 12,3 9,6 5,7 15,1 24,8 16,0 61,4 94,0 995,3 1.017,4 1.031,2   7,5 77,2 47,4  
Últimes dades mensuals
01/2017 -6,9 0,1 6,5 3,6 -1,9 7,9 17,2 43,9 69,5 95,7 1.010,8 1.020,9 1.030,1 10,8 83,7 66,2 9
12/2016 -0,9 2,9 7,6 6,0 3,2 10,3 15,3 37,7 82,5 95,3 1.017,9 1.028,0 1.036,3 3,8 45,1 45,4 13
11/2016 -2,2 4,0 8,8 7,7 7,4 11,4 16,9 61,5 72,8 92,0 1.002,0 1.014,6 1.026,5 71,0 45,4 8
10/2016 3,6 9,3 13,1 14,4 12,3 19,4 25,9 40,5 69,9 85,5 1.000,0 1.015,3 1.027,5 45,0 18,0 12
09/2016 8,3 13,3 22,1 18,7 16,3 24,2 34,7 33,0 62,2 80,0 1.009,5 1.017,0 1.026,5 52,0 16,8 9
08/2016 8,5 14,5 18,3 21,4 21,9 28,3 32,1 47,0 55,6 77,5 1.008,0 1.016,5 1.022,5 45,0 9,8 2
07/2016 7,8 15,6 20,3 22,0 21,3 28,4 35,2 39,5 55,1 67,5 1.010,5 1.015,6 1.021,0 63,0 27,6 6
06/2016 8,3 12,9 18,8 18,7 16,9 24,6 30,6 38,5 57,7 73,5 1.001,0 1.014,6 1.024,5 50,0 41,0 7
05/2016 4,8 8,2 12,8 13,4 11,7 18,5 24,1 42,5 65,5 90,5 1.005,0 1.012,9 1.021,0 68,0 36,6 10
04/2016 -0,1 5,1 10,1 9,8 5,9 14,5 21,3 49,0 64,6 93,0 1.005,0 1.012,7 1.019,0 64,0 37,6 9
03/2016 -2,5 2,5 6,8 6,7 4,8 10,9 21,7 48,5 67,3 91,0 1.004,0 1.015,4 1.026,5 68,0 21,8 8
02/2016 -7,2 2,1 10,4 6,8 3,8 11,5 16,8 42,5 64,8 86,5 991,0 1.017,4 1.036,0 90,0 21,6 10
01/2016 -1,0 3,8 10,9 8,0 3,8 12,2 18,2 53,0 68,4 87,0 1.002,5 1.020,5 1.032,5 74,0 6,6 4
Dades de l'any en curs (actualitzades fins l'últim dia disponible)
2017 -6,9 2,3 12,3 6,5 -1,9 11,3 24,8 16,0 68,3 97,0 995,3 1.018,8 1.032,9   8,9 85,3 141,1  
Últimes dades anuals